Time;durP1;ratioP1;P1;durP2;ratioP2;P2;SDS_P1;SDS_P2;PMS_P1;PMS_P2;Temp;Humidity;BMP_temperature;BMP_pressure;BME280_temperature;BME280_humidity;BME280_pressure;Samples;Min_cycle;Max_cycle;Signal;HPM_P1;HPM_P2
2022/04/19 00:01:11;;;;;;;15.77;10.47;;;;;;;;;;5003454;28;20211;-70
2022/04/19 00:03:37;;;;;;;16.70;10.53;;;;;;;;;;5011421;28;20178;-71
2022/04/19 00:06:02;;;;;;;15.03;10.77;;;;;;;;;;5004187;28;20180;-70
2022/04/19 00:08:27;;;;;;;12.97;10.43;;;;;;;;;;5000522;28;20186;-71
2022/04/19 00:10:52;;;;;;;13.07;9.70;;;;;;;;;;5003801;28;20708;-70
2022/04/19 00:13:17;;;;;;;14.20;10.97;;;;;;;;;;5004917;28;20179;-70
2022/04/19 00:15:43;;;;;;;12.93;10.20;;;;;;;;;;5006040;28;20179;-70
2022/04/19 00:18:09;;;;;;;11.37;10.23;;;;;;;;;;5003329;28;20578;-71
2022/04/19 00:20:34;;;;;;;13.10;10.53;;;;;;;;;;5007209;28;20199;-71
2022/04/19 00:22:59;;;;;;;13.57;9.70;;;;;;;;;;5007218;28;20190;-71
2022/04/19 00:25:25;;;;;;;11.97;9.73;;;;;;;;;;5009068;28;20758;-70
2022/04/19 00:27:50;;;;;;;12.60;10.13;;;;;;;;;;5004403;28;20270;-71
2022/04/19 00:30:15;;;;;;;14.90;9.90;;;;;;;;;;5007620;28;20288;-69
2022/04/19 00:32:41;;;;;;;15.20;9.50;;;;;;;;;;5007257;28;20661;-71
2022/04/19 00:35:06;;;;;;;12.07;9.83;;;;;;;;;;5007009;28;20192;-71
2022/04/19 00:37:35;;;;;;;14.77;10.43;;;;;;;;;;5005400;28;20207;-71
2022/04/19 00:40:01;;;;;;;13.47;9.83;;;;;;;;;;5004644;28;20277;-71
2022/04/19 00:42:28;;;;;;;12.43;10.87;;;;;;;;;;5014034;28;20258;-71
2022/04/19 00:45:04;;;;;;;16.20;10.17;;;;;;;;;;5014826;28;20229;-71
2022/04/19 00:47:32;;;;;;;11.30;9.57;;;;;;;;;;5013616;28;20232;-70
2022/04/19 00:49:58;;;;;;;15.83;9.60;;;;;;;;;;5011389;28;20196;-69
2022/04/19 00:52:23;;;;;;;13.03;10.30;;;;;;;;;;5007013;28;20182;-71
2022/04/19 00:54:48;;;;;;;14.67;10.27;;;;;;;;;;5012350;28;20192;-70
2022/04/19 00:57:14;;;;;;;12.17;9.77;;;;;;;;;;5009154;28;20175;-71
2022/04/19 00:59:40;;;;;;;11.90;10.00;;;;;;;;;;5013187;28;20171;-71
2022/04/19 01:02:05;;;;;;;11.27;9.90;;;;;;;;;;5014821;28;20178;-71
2022/04/19 01:04:30;;;;;;;11.10;9.87;;;;;;;;;;5010010;28;20181;-71
2022/04/19 01:06:57;;;;;;;11.83;10.57;;;;;;;;;;5013399;28;20539;-70
2022/04/19 01:09:22;;;;;;;15.83;11.37;;;;;;;;;;5010193;28;20190;-70
2022/04/19 01:14:34;;;;;;;13.57;10.83;;;;;;;;;;5018621;28;20185;-71
2022/04/19 01:16:59;;;;;;;14.07;11.27;;;;;;;;;;5009044;28;20657;-71
2022/04/19 01:19:24;;;;;;;12.00;10.27;;;;;;;;;;5010744;28;20317;-71
2022/04/19 01:21:50;;;;;;;14.00;9.80;;;;;;;;;;5013134;28;20707;-71
2022/04/19 01:24:16;;;;;;;15.17;10.37;;;;;;;;;;5004212;28;20258;-72
2022/04/19 01:26:41;;;;;;;16.83;11.03;;;;;;;;;;5010567;28;20222;-69
2022/04/19 01:29:07;;;;;;;14.57;9.67;;;;;;;;;;5003311;28;20175;-69
2022/04/19 01:31:33;;;;;;;13.60;10.37;;;;;;;;;;5015470;28;20223;-69
2022/04/19 01:33:58;;;;;;;15.60;11.30;;;;;;;;;;5007888;28;20179;-71
2022/04/19 01:36:23;;;;;;;11.30;9.97;;;;;;;;;;5011903;28;20632;-70
2022/04/19 01:38:48;;;;;;;13.20;10.27;;;;;;;;;;5001679;28;20290;-70
2022/04/19 01:41:14;;;;;;;14.03;10.67;;;;;;;;;;5001099;28;20192;-70
2022/04/19 01:43:41;;;;;;;10.97;9.50;;;;;;;;;;5009576;28;20241;-70
2022/04/19 01:46:06;;;;;;;11.07;9.87;;;;;;;;;;5004723;28;20172;-70
2022/04/19 01:48:31;;;;;;;11.50;10.03;;;;;;;;;;5007886;28;20189;-71
2022/04/19 01:50:57;;;;;;;11.57;10.37;;;;;;;;;;5002369;28;20211;-71
2022/04/19 01:53:22;;;;;;;11.40;9.47;;;;;;;;;;5007696;28;20206;-71
2022/04/19 01:55:47;;;;;;;11.53;10.03;;;;;;;;;;5010020;28;20240;-72
2022/04/19 01:58:12;;;;;;;9.77;8.63;;;;;;;;;;5006144;28;20206;-70
2022/04/19 02:00:37;;;;;;;11.10;8.80;;;;;;;;;;5009344;28;20206;-71
2022/04/19 02:03:03;;;;;;;13.13;9.60;;;;;;;;;;5012059;28;20183;-71
2022/04/19 02:05:28;;;;;;;12.00;9.70;;;;;;;;;;5004162;28;20176;-70
2022/04/19 02:07:53;;;;;;;12.10;10.03;;;;;;;;;;5005650;28;20182;-71
2022/04/19 02:10:19;;;;;;;12.37;9.67;;;;;;;;;;5010177;28;20198;-69
2022/04/19 02:12:44;;;;;;;11.57;10.13;;;;;;;;;;5007013;28;20665;-70
2022/04/19 02:15:09;;;;;;;11.47;9.80;;;;;;;;;;4999186;28;20206;-71
2022/04/19 02:17:44;;;;;;;14.23;10.60;;;;;;;;;;5010090;28;20190;-70
2022/04/19 02:20:09;;;;;;;12.50;10.23;;;;;;;;;;5010359;28;20222;-71
2022/04/19 02:22:35;;;;;;;11.77;9.67;;;;;;;;;;5011503;28;20214;-71
2022/04/19 02:25:00;;;;;;;10.87;9.77;;;;;;;;;;5010927;28;20629;-72
2022/04/19 02:27:26;;;;;;;14.10;9.80;;;;;;;;;;5011666;28;20175;-69
2022/04/19 02:29:52;;;;;;;11.30;9.93;;;;;;;;;;5011888;28;20199;-69
2022/04/19 02:32:17;;;;;;;11.37;9.43;;;;;;;;;;5011214;28;20559;-69
2022/04/19 02:34:42;;;;;;;13.87;9.83;;;;;;;;;;5005617;28;20652;-72
2022/04/19 02:37:07;;;;;;;11.03;9.63;;;;;;;;;;5012035;28;20257;-70
2022/04/19 02:39:33;;;;;;;10.90;9.20;;;;;;;;;;5006224;28;20187;-72
2022/04/19 02:41:58;;;;;;;12.60;9.60;;;;;;;;;;5008298;28;20641;-69
2022/04/19 02:44:24;;;;;;;10.63;9.53;;;;;;;;;;5012173;28;20577;-70
2022/04/19 02:46:49;;;;;;;10.10;9.03;;;;;;;;;;5008223;28;20648;-69
2022/04/19 02:49:14;;;;;;;10.47;9.30;;;;;;;;;;5002434;28;20637;-72
2022/04/19 02:51:39;;;;;;;13.13;11.13;;;;;;;;;;5009346;28;20620;-71
2022/04/19 02:54:05;;;;;;;10.90;9.67;;;;;;;;;;5011673;28;20186;-71
2022/04/19 02:56:30;;;;;;;12.10;10.20;;;;;;;;;;5010627;28;20224;-71
2022/04/19 02:58:55;;;;;;;12.80;9.80;;;;;;;;;;5005055;28;20211;-71
2022/04/19 03:01:20;;;;;;;11.27;9.17;;;;;;;;;;5009411;28;20722;-71
2022/04/19 03:03:45;;;;;;;11.97;10.10;;;;;;;;;;5009428;28;20203;-71
2022/04/19 03:06:11;;;;;;;11.57;9.23;;;;;;;;;;5007365;28;20242;-71
2022/04/19 03:08:37;;;;;;;10.13;9.07;;;;;;;;;;5010404;28;20174;-71
2022/04/19 03:11:02;;;;;;;12.10;9.37;;;;;;;;;;5009305;28;20253;-71
2022/04/19 03:13:28;;;;;;;10.30;8.80;;;;;;;;;;5011204;28;20183;-71
2022/04/19 03:15:53;;;;;;;9.77;8.77;;;;;;;;;;5009550;28;20660;-70
2022/04/19 03:18:18;;;;;;;11.50;9.23;;;;;;;;;;5005829;28;20212;-70
2022/04/19 03:20:46;;;;;;;10.43;9.33;;;;;;;;;;5010359;28;20195;-69
2022/04/19 03:28:40;;;;;;;11.53;9.43;;;;;;;;;;5007090;28;20578;-71
2022/04/19 03:31:05;;;;;;;10.47;8.83;;;;;;;;;;5005394;28;20203;-69
2022/04/19 03:33:32;;;;;;;13.70;9.53;;;;;;;;;;5005231;28;20193;-69
2022/04/19 03:35:57;;;;;;;11.00;8.87;;;;;;;;;;5007706;28;20274;-69
2022/04/19 03:38:22;;;;;;;11.73;9.00;;;;;;;;;;5008741;28;20301;-70
2022/04/19 03:40:48;;;;;;;10.73;9.23;;;;;;;;;;5010763;28;20285;-71
2022/04/19 03:43:13;;;;;;;11.23;8.40;;;;;;;;;;5011317;28;20579;-71
2022/04/19 03:45:38;;;;;;;14.40;9.27;;;;;;;;;;5009055;28;20178;-71
2022/04/19 03:48:05;;;;;;;10.90;8.70;;;;;;;;;;5008541;28;20190;-71
2022/04/19 03:50:31;;;;;;;11.67;9.43;;;;;;;;;;5009569;28;20207;-70
2022/04/19 03:52:56;;;;;;;10.57;8.87;;;;;;;;;;5011017;28;20703;-70
2022/04/19 03:55:23;;;;;;;11.80;9.13;;;;;;;;;;5011011;28;20205;-70
2022/04/19 03:57:48;;;;;;;11.00;9.20;;;;;;;;;;5011217;28;20195;-71
2022/04/19 04:00:14;;;;;;;10.47;8.43;;;;;;;;;;5008812;28;20206;-71
2022/04/19 04:02:39;;;;;;;11.10;8.70;;;;;;;;;;5004935;28;20581;-71
2022/04/19 04:05:05;;;;;;;11.13;8.77;;;;;;;;;;5009605;28;20684;-71
2022/04/19 04:07:30;;;;;;;11.50;9.60;;;;;;;;;;5009136;28;20195;-71
2022/04/19 04:09:55;;;;;;;10.03;8.77;;;;;;;;;;5009092;28;20209;-71
2022/04/19 04:12:21;;;;;;;10.53;8.70;;;;;;;;;;5004738;28;20187;-71
2022/04/19 04:14:46;;;;;;;12.53;9.23;;;;;;;;;;5006884;28;20177;-69
2022/04/19 04:17:11;;;;;;;10.23;9.03;;;;;;;;;;5006577;28;20209;-69
2022/04/19 04:19:36;;;;;;;11.37;9.17;;;;;;;;;;5007654;28;20691;-69
2022/04/19 04:22:02;;;;;;;10.03;8.43;;;;;;;;;;5015712;28;20261;-71
2022/04/19 04:24:27;;;;;;;10.67;8.70;;;;;;;;;;5003209;28;20198;-70
2022/04/19 04:26:52;;;;;;;11.50;8.83;;;;;;;;;;5011425;28;20660;-70
2022/04/19 04:29:17;;;;;;;12.47;9.10;;;;;;;;;;5009747;28;20237;-70
2022/04/19 04:31:43;;;;;;;11.93;9.27;;;;;;;;;;5005992;28;20202;-72
2022/04/19 04:34:08;;;;;;;12.90;9.13;;;;;;;;;;5004098;28;20180;-72
2022/04/19 04:36:33;;;;;;;11.13;9.67;;;;;;;;;;5005876;28;20641;-70
2022/04/19 04:38:59;;;;;;;12.10;9.07;;;;;;;;;;5010223;28;20199;-70
2022/04/19 04:41:24;;;;;;;13.97;10.70;;;;;;;;;;5010929;28;20207;-70
2022/04/19 04:43:49;;;;;;;14.03;9.80;;;;;;;;;;5007077;28;20178;-70
2022/04/19 04:51:42;;;;;;;16.40;10.90;;;;;;;;;;5009340;28;20241;-70
2022/04/19 04:54:07;;;;;;;13.33;9.57;;;;;;;;;;5007618;28;20269;-70
2022/04/19 04:56:33;;;;;;;11.97;9.43;;;;;;;;;;5011796;28;20676;-70
2022/04/19 04:58:58;;;;;;;12.83;9.33;;;;;;;;;;5008465;28;20219;-72
2022/04/19 05:01:23;;;;;;;12.53;10.50;;;;;;;;;;4989513;28;105541;-71
2022/04/19 05:03:48;;;;;;;14.70;11.07;;;;;;;;;;5009997;28;20564;-71
2022/04/19 05:06:13;;;;;;;14.53;11.20;;;;;;;;;;5005702;28;20175;-71
2022/04/19 05:08:39;;;;;;;15.87;11.13;;;;;;;;;;5009216;28;20604;-71
2022/04/19 05:11:04;;;;;;;13.73;10.00;;;;;;;;;;5010410;28;20221;-70
2022/04/19 05:13:29;;;;;;;13.43;10.50;;;;;;;;;;5008711;28;20261;-70
2022/04/19 05:15:54;;;;;;;11.53;9.50;;;;;;;;;;5010712;28;20183;-71
2022/04/19 05:18:19;;;;;;;16.50;10.60;;;;;;;;;;5006082;28;20249;-69
2022/04/19 05:20:45;;;;;;;15.93;11.60;;;;;;;;;;5013148;28;20199;-69
2022/04/19 05:23:10;;;;;;;13.07;10.47;;;;;;;;;;5012943;28;20257;-69
2022/04/19 05:25:35;;;;;;;12.37;9.90;;;;;;;;;;5009645;28;20215;-70
2022/04/19 05:28:00;;;;;;;13.57;10.30;;;;;;;;;;5003343;28;20190;-70
2022/04/19 05:30:26;;;;;;;14.17;10.23;;;;;;;;;;4999732;28;20203;-70
2022/04/19 05:32:51;;;;;;;13.70;10.23;;;;;;;;;;5000370;28;20657;-70
2022/04/19 05:35:16;;;;;;;13.37;9.90;;;;;;;;;;5009296;28;20171;-70
2022/04/19 05:37:41;;;;;;;11.97;10.07;;;;;;;;;;5008917;28;20325;-70
2022/04/19 05:40:07;;;;;;;12.57;9.87;;;;;;;;;;5008946;28;20234;-71
2022/04/19 05:42:32;;;;;;;14.20;10.83;;;;;;;;;;5006944;28;20264;-69
2022/04/19 05:44:57;;;;;;;11.47;9.67;;;;;;;;;;5011182;28;20644;-71
2022/04/19 05:47:23;;;;;;;11.20;9.37;;;;;;;;;;5011692;28;20732;-69
2022/04/19 05:49:48;;;;;;;13.90;9.80;;;;;;;;;;5004592;28;20198;-70
2022/04/19 05:52:13;;;;;;;13.83;10.00;;;;;;;;;;5009763;28;20299;-69
2022/04/19 05:54:38;;;;;;;11.10;8.87;;;;;;;;;;5004712;28;20206;-70
2022/04/19 05:57:04;;;;;;;12.90;9.63;;;;;;;;;;5011211;28;20546;-71
2022/04/19 05:59:29;;;;;;;15.73;10.33;;;;;;;;;;5008449;28;20297;-71
2022/04/19 06:04:53;;;;;;;12.37;9.53;;;;;;;;;;5003521;28;20703;-70
2022/04/19 06:07:25;;;;;;;10.80;8.80;;;;;;;;;;5001390;28;20724;-70
2022/04/19 06:09:50;;;;;;;10.97;9.23;;;;;;;;;;5006204;28;20661;-70
2022/04/19 06:12:15;;;;;;;12.33;9.40;;;;;;;;;;5008752;28;20225;-71
2022/04/19 06:14:41;;;;;;;13.53;9.43;;;;;;;;;;4998541;28;20187;-71
2022/04/19 06:17:06;;;;;;;11.30;9.03;;;;;;;;;;5008353;28;20601;-70
2022/04/19 06:19:31;;;;;;;11.67;9.47;;;;;;;;;;5003436;28;20207;-70
2022/04/19 06:21:57;;;;;;;12.53;10.07;;;;;;;;;;5008727;28;20267;-70
2022/04/19 06:24:22;;;;;;;13.00;9.90;;;;;;;;;;5011012;28;20175;-69
2022/04/19 06:26:48;;;;;;;14.57;10.43;;;;;;;;;;5009312;28;20179;-71
2022/04/19 06:29:13;;;;;;;12.43;10.13;;;;;;;;;;5010041;28;20179;-68
2022/04/19 06:31:40;;;;;;;12.67;9.23;;;;;;;;;;5010657;28;20353;-71
2022/04/19 06:34:05;;;;;;;13.23;10.00;;;;;;;;;;5010048;28;20193;-69
2022/04/19 06:36:30;;;;;;;11.30;9.33;;;;;;;;;;5009809;28;20183;-68
2022/04/19 06:38:56;;;;;;;14.97;9.73;;;;;;;;;;5007611;28;20203;-71
2022/04/19 06:41:21;;;;;;;12.87;9.73;;;;;;;;;;5009783;28;20202;-69
2022/04/19 06:43:46;;;;;;;11.23;9.85;;;;;;;;;;5002778;28;20171;-69
2022/04/19 06:46:12;;;;;;;13.88;10.07;;;;;;;;;;5008453;28;20265;-68
2022/04/19 06:48:38;;;;;;;12.75;9.63;;;;;;;;;;5006734;28;20541;-68
2022/04/19 06:51:03;;;;;;;12.37;9.37;;;;;;;;;;5008863;28;20281;-69
2022/04/19 06:53:30;;;;;;;16.95;9.90;;;;;;;;;;5009112;28;20424;-69
2022/04/19 06:55:55;;;;;;;11.88;9.10;;;;;;;;;;5009048;28;20187;-71
2022/04/19 06:58:20;;;;;;;12.00;9.63;;;;;;;;;;5009622;28;20206;-70
2022/04/19 07:00:46;;;;;;;13.07;9.80;;;;;;;;;;5007194;28;20682;-70
2022/04/19 07:03:11;;;;;;;15.00;9.70;;;;;;;;;;5010845;28;20421;-68
2022/04/19 07:05:36;;;;;;;11.20;9.03;;;;;;;;;;5012563;28;20241;-71
2022/04/19 07:08:04;;;;;;;11.45;8.25;;;;;;;;;;5009469;28;20420;-70
2022/04/19 07:10:30;;;;;;;10.65;8.27;;;;;;;;;;5011060;28;20199;-71
2022/04/19 07:12:55;;;;;;;16.50;9.82;;;;;;;;;;5008457;28;20190;-70
2022/04/19 07:15:20;;;;;;;12.38;8.32;;;;;;;;;;5009096;28;20198;-70
2022/04/19 07:17:45;;;;;;;11.10;8.40;;;;;;;;;;5006303;28;20289;-71
2022/04/19 07:28:22;;;;;;;11.13;6.90;;;;;;;;;;5004163;28;20615;-70
2022/04/19 07:30:47;;;;;;;9.55;7.82;;;;;;;;;;5010990;28;20277;-70
2022/04/19 07:33:12;;;;;;;9.85;7.57;;;;;;;;;;5008241;28;20221;-71
2022/04/19 07:35:38;;;;;;;9.95;7.20;;;;;;;;;;5009962;28;20638;-70
2022/04/19 07:38:03;;;;;;;9.68;7.15;;;;;;;;;;5006726;28;20260;-68
2022/04/19 07:40:29;;;;;;;10.43;7.38;;;;;;;;;;5009936;28;20249;-68
2022/04/19 07:42:54;;;;;;;9.38;7.15;;;;;;;;;;5004750;28;20653;-69
2022/04/19 07:45:19;;;;;;;9.93;6.65;;;;;;;;;;5006478;28;20195;-68
2022/04/19 07:47:45;;;;;;;11.45;6.80;;;;;;;;;;5004480;28;20803;-69
2022/04/19 07:50:10;;;;;;;8.52;6.47;;;;;;;;;;5005826;28;20483;-71
2022/04/19 07:52:35;;;;;;;9.82;7.07;;;;;;;;;;5008946;28;20179;-71
2022/04/19 07:55:00;;;;;;;11.05;7.65;;;;;;;;;;5008323;28;20724;-70
2022/04/19 07:57:25;;;;;;;8.52;6.38;;;;;;;;;;5009311;28;20258;-70
2022/04/19 07:59:54;;;;;;;10.57;6.43;;;;;;;;;;5006249;28;20349;-70
2022/04/19 08:02:19;;;;;;;10.10;5.78;;;;;;;;;;5006173;28;20189;-68
2022/04/19 08:04:45;;;;;;;8.35;6.28;;;;;;;;;;5009548;28;20704;-68
2022/04/19 08:07:10;;;;;;;8.82;5.38;;;;;;;;;;5009614;28;20181;-68
2022/04/19 08:09:35;;;;;;;6.90;6.20;;;;;;;;;;5009999;28;20175;-69
2022/04/19 08:12:01;;;;;;;8.10;5.47;;;;;;;;;;5008932;28;20427;-70
2022/04/19 08:14:26;;;;;;;6.25;5.35;;;;;;;;;;5010784;28;20178;-69
2022/04/19 08:16:51;;;;;;;7.10;5.53;;;;;;;;;;5007370;28;20197;-69
2022/04/19 08:19:16;;;;;;;6.80;5.50;;;;;;;;;;5007688;28;20210;-69
2022/04/19 08:21:41;;;;;;;7.18;4.30;;;;;;;;;;5002267;28;20817;-69
2022/04/19 08:24:07;;;;;;;5.40;4.40;;;;;;;;;;5009518;28;20202;-69
2022/04/19 08:26:32;;;;;;;7.20;4.88;;;;;;;;;;5007198;28;20171;-69
2022/04/19 08:28:58;;;;;;;5.75;4.47;;;;;;;;;;5007408;28;20179;-69
2022/04/19 08:31:23;;;;;;;6.72;5.50;;;;;;;;;;5007021;28;20276;-69
2022/04/19 08:33:48;;;;;;;8.43;5.28;;;;;;;;;;5007725;28;20175;-69
2022/04/19 08:36:13;;;;;;;6.03;4.78;;;;;;;;;;5008304;28;20182;-69
2022/04/19 08:38:38;;;;;;;7.13;5.25;;;;;;;;;;5008326;28;20207;-69
2022/04/19 08:41:04;;;;;;;5.87;5.27;;;;;;;;;;5007499;28;20238;-69
2022/04/19 08:43:29;;;;;;;6.78;4.80;;;;;;;;;;5008420;28;20522;-69
2022/04/19 08:45:55;;;;;;;6.83;5.30;;;;;;;;;;5000041;28;20187;-69
2022/04/19 08:48:23;;;;;;;12.40;5.63;;;;;;;;;;4995604;28;20437;-69
2022/04/19 08:50:49;;;;;;;6.43;5.30;;;;;;;;;;5008709;28;20526;-69
2022/04/19 08:58:42;;;;;;;8.88;5.70;;;;;;;;;;5004438;28;20709;-68
2022/04/19 09:01:08;;;;;;;7.13;5.63;;;;;;;;;;5010384;28;20306;-69
2022/04/19 09:03:33;;;;;;;6.65;5.53;;;;;;;;;;5010184;28;20429;-69
2022/04/19 09:05:59;;;;;;;9.05;6.43;;;;;;;;;;5011930;28;20258;-68
2022/04/19 09:08:24;;;;;;;7.88;5.57;;;;;;;;;;5010680;28;20191;-68
2022/04/19 09:10:50;;;;;;;7.65;5.53;;;;;;;;;;5012391;28;20207;-68
2022/04/19 09:13:21;;;;;;;8.25;5.47;;;;;;;;;;5011952;28;20175;-69
2022/04/19 09:15:46;;;;;;;8.20;5.65;;;;;;;;;;5007168;28;20229;-67
2022/04/19 09:18:13;;;;;;;10.23;6.25;;;;;;;;;;5011613;28;20668;-68
2022/04/19 09:20:38;;;;;;;8.18;5.63;;;;;;;;;;5012286;28;20198;-68
2022/04/19 09:23:05;;;;;;;7.85;5.85;;;;;;;;;;5013088;28;20175;-68
2022/04/19 09:25:30;;;;;;;7.43;5.10;;;;;;;;;;5012949;28;20200;-68
2022/04/19 09:27:56;;;;;;;6.60;5.60;;;;;;;;;;5007691;28;20187;-68
2022/04/19 09:30:25;;;;;;;7.70;5.47;;;;;;;;;;4995828;28;20606;-68
2022/04/19 09:33:00;;;;;;;7.15;5.72;;;;;;;;;;4997197;28;20178;-68
2022/04/19 09:35:35;;;;;;;9.43;5.97;;;;;;;;;;5007726;28;20186;-68
2022/04/19 09:38:00;;;;;;;7.07;5.72;;;;;;;;;;5009780;28;20213;-69
2022/04/19 09:40:33;;;;;;;6.97;5.00;;;;;;;;;;5008374;28;20195;-68
2022/04/19 09:43:05;;;;;;;7.78;5.07;;;;;;;;;;5003813;28;20171;-69
2022/04/19 09:45:43;;;;;;;6.80;5.90;;;;;;;;;;5011974;28;20210;-68
2022/04/19 09:48:14;;;;;;;7.55;5.40;;;;;;;;;;5006537;28;20316;-67
2022/04/19 09:50:46;;;;;;;5.90;5.00;;;;;;;;;;5005149;28;20206;-68
2022/04/19 09:53:16;;;;;;;7.25;5.47;;;;;;;;;;5011878;28;20183;-68
2022/04/19 09:55:45;;;;;;;5.57;4.75;;;;;;;;;;5007568;28;20175;-68
2022/04/19 09:58:10;;;;;;;6.15;4.68;;;;;;;;;;5010304;28;20202;-68
2022/04/19 10:00:36;;;;;;;6.00;4.10;;;;;;;;;;5008686;28;20214;-68
2022/04/19 10:08:29;;;;;;;5.85;4.30;;;;;;;;;;5009109;28;20193;-68
2022/04/19 10:10:56;;;;;;;5.47;4.45;;;;;;;;;;5010160;28;20282;-68
2022/04/19 10:13:25;;;;;;;5.32;4.07;;;;;;;;;;5008545;28;20249;-67
2022/04/19 10:15:51;;;;;;;5.07;4.30;;;;;;;;;;5009874;28;20704;-68
2022/04/19 10:18:16;;;;;;;5.32;3.92;;;;;;;;;;5008297;28;20286;-68
2022/04/19 10:20:50;;;;;;;6.20;3.97;;;;;;;;;;5012147;28;20221;-68
2022/04/19 10:23:15;;;;;;;5.38;3.75;;;;;;;;;;5006575;28;20404;-67
2022/04/19 10:25:44;;;;;;;7.00;4.07;;;;;;;;;;5009596;28;20606;-69
2022/04/19 10:28:14;;;;;;;5.40;3.85;;;;;;;;;;5009495;28;20178;-68
2022/04/19 10:30:46;;;;;;;4.85;3.92;;;;;;;;;;5010185;28;20294;-67
2022/04/19 10:33:31;;;;;;;5.00;3.83;;;;;;;;;;5012062;28;20683;-67
2022/04/19 10:36:13;;;;;;;4.85;4.15;;;;;;;;;;4998958;28;20679;-68
2022/04/19 10:38:38;;;;;;;5.63;4.30;;;;;;;;;;5023365;28;20202;-67
2022/04/19 10:41:03;;;;;;;5.20;3.80;;;;;;;;;;5011482;28;20201;-68
2022/04/19 10:43:29;;;;;;;5.00;3.90;;;;;;;;;;5007943;28;20771;-68
2022/04/19 10:45:54;;;;;;;6.32;3.50;;;;;;;;;;5011997;28;20179;-68
2022/04/19 10:48:20;;;;;;;4.97;3.88;;;;;;;;;;5008056;28;20202;-67
2022/04/19 10:50:50;;;;;;;5.50;3.30;;;;;;;;;;5007308;28;20195;-68
2022/04/19 10:53:16;;;;;;;7.93;4.75;;;;;;;;;;5010428;28;20175;-68
2022/04/19 10:55:41;;;;;;;5.60;4.25;;;;;;;;;;5010918;28;20527;-68
2022/04/19 10:58:17;;;;;;;6.47;4.80;;;;;;;;;;4998004;28;20290;-68
2022/04/19 11:00:42;;;;;;;8.38;4.55;;;;;;;;;;4998820;28;20582;-68
2022/04/19 11:03:09;;;;;;;7.53;5.13;;;;;;;;;;5013265;28;20253;-68
2022/04/19 11:05:43;;;;;;;6.57;4.97;;;;;;;;;;5006137;28;20179;-68
2022/04/19 11:08:18;;;;;;;7.93;4.88;;;;;;;;;;5006048;28;20194;-68
2022/04/19 11:10:44;;;;;;;8.27;4.57;;;;;;;;;;5002360;28;20202;-68
2022/04/19 11:13:09;;;;;;;7.15;4.18;;;;;;;;;;4994355;28;20230;-67
2022/04/19 11:15:36;;;;;;;6.17;4.37;;;;;;;;;;5002823;28;20629;-68
2022/04/19 11:18:24;;;;;;;5.53;4.05;;;;;;;;;;5007924;28;20487;-68
2022/04/19 11:20:49;;;;;;;6.25;3.60;;;;;;;;;;5008574;28;20197;-68
2022/04/19 11:23:22;;;;;;;7.05;4.10;;;;;;;;;;5005333;28;20273;-68
2022/04/19 11:25:48;;;;;;;4.85;4.13;;;;;;;;;;5004945;28;20220;-68
2022/04/19 11:28:17;;;;;;;5.25;3.92;;;;;;;;;;5006747;28;20199;-68
2022/04/19 11:31:03;;;;;;;4.20;3.78;;;;;;;;;;5003885;28;20581;-68
2022/04/19 11:33:33;;;;;;;5.40;3.80;;;;;;;;;;5000351;28;20179;-69
2022/04/19 11:35:59;;;;;;;6.25;5.28;;;;;;;;;;5003712;28;20175;-68
2022/04/19 11:38:24;;;;;;;7.35;5.05;;;;;;;;;;5000324;28;20572;-68
2022/04/19 11:49:02;;;;;;;5.65;3.70;;;;;;;;;;5006457;28;20233;-68
2022/04/19 11:51:27;;;;;;;9.50;4.30;;;;;;;;;;5007863;28;20700;-68
2022/04/19 11:53:52;;;;;;;5.87;4.73;;;;;;;;;;5011495;28;20408;-68
2022/04/19 11:56:18;;;;;;;5.17;4.20;;;;;;;;;;5006921;28;20550;-68
2022/04/19 11:58:48;;;;;;;6.68;4.90;;;;;;;;;;5006769;28;20207;-68
2022/04/19 12:01:14;;;;;;;7.60;5.68;;;;;;;;;;5008657;28;20791;-68
2022/04/19 12:03:40;;;;;;;7.10;4.88;;;;;;;;;;5013076;28;20175;-68
2022/04/19 12:06:08;;;;;;;7.35;5.13;;;;;;;;;;5009027;28;20228;-68
2022/04/19 12:08:33;;;;;;;6.88;5.25;;;;;;;;;;5006897;28;20262;-68
2022/04/19 12:11:00;;;;;;;6.20;4.32;;;;;;;;;;5009243;28;20661;-68
2022/04/19 12:13:26;;;;;;;7.30;4.97;;;;;;;;;;5006732;28;20201;-67
2022/04/19 12:15:51;;;;;;;6.70;5.07;;;;;;;;;;5008006;28;20179;-68
2022/04/19 12:18:36;;;;;;;5.35;4.72;;;;;;;;;;4991223;28;20222;-68
2022/04/19 12:21:02;;;;;;;6.28;4.72;;;;;;;;;;5007492;28;20218;-68
2022/04/19 12:23:28;;;;;;;6.05;4.57;;;;;;;;;;5007554;28;20250;-68
2022/04/19 12:26:06;;;;;;;7.53;5.53;;;;;;;;;;5000966;28;20192;-68
2022/04/19 12:28:34;;;;;;;6.55;4.93;;;;;;;;;;5005483;28;20522;-68
2022/04/19 12:30:59;;;;;;;7.30;5.63;;;;;;;;;;5006777;28;20305;-68
2022/04/19 12:33:24;;;;;;;8.47;5.27;;;;;;;;;;5005793;28;20715;-68
2022/04/19 12:35:53;;;;;;;6.63;4.82;;;;;;;;;;5007962;28;20202;-68
2022/04/19 12:38:18;;;;;;;6.68;4.47;;;;;;;;;;5000631;28;20207;-67
2022/04/19 12:40:44;;;;;;;8.93;5.90;;;;;;;;;;5001608;28;20206;-68
2022/04/19 12:43:10;;;;;;;7.47;4.78;;;;;;;;;;5010103;28;20586;-68
2022/04/19 12:45:36;;;;;;;6.43;5.18;;;;;;;;;;5010418;28;20179;-68
2022/04/19 12:48:02;;;;;;;6.70;4.57;;;;;;;;;;5012192;28;20305;-68
2022/04/19 12:50:27;;;;;;;5.82;4.22;;;;;;;;;;5009286;28;20281;-68
2022/04/19 12:52:53;;;;;;;5.68;3.70;;;;;;;;;;5010833;28;20546;-68
2022/04/19 12:55:27;;;;;;;6.88;3.78;;;;;;;;;;5009255;28;20186;-68
2022/04/19 12:58:04;;;;;;;6.50;4.05;;;;;;;;;;5003716;28;20278;-68
2022/04/19 13:00:29;;;;;;;6.57;4.03;;;;;;;;;;5015036;28;20214;-68
2022/04/19 13:02:58;;;;;;;8.73;5.07;;;;;;;;;;5014441;28;20182;-68
2022/04/19 13:12:16;;;;;;;7.05;4.95;;;;;;;;;;5007064;28;20190;-68
2022/04/19 13:13:36;;;;;;;4.65;3.65;;;;;;;;;;5011285;28;20237;-68
2022/04/19 13:16:01;;;;;;;6.63;3.63;;;;;;;;;;5009820;28;20668;-67
2022/04/19 13:18:26;;;;;;;5.63;4.00;;;;;;;;;;5010295;28;20203;-68
2022/04/19 13:20:52;;;;;;;5.77;4.07;;;;;;;;;;5006668;28;20455;-68
2022/04/19 13:23:17;;;;;;;5.53;4.32;;;;;;;;;;5013115;28;20898;-68
2022/04/19 13:25:43;;;;;;;6.30;4.50;;;;;;;;;;5012318;28;20580;-68
2022/04/19 13:28:09;;;;;;;6.80;3.70;;;;;;;;;;5011582;28;20258;-68
2022/04/19 13:30:35;;;;;;;5.85;3.92;;;;;;;;;;5010311;28;20676;-68
2022/04/19 13:33:00;;;;;;;6.05;3.67;;;;;;;;;;5005015;28;20174;-68
2022/04/19 13:35:25;;;;;;;6.30;4.68;;;;;;;;;;5007772;28;20175;-68
2022/04/19 13:40:34;;;;;;;10.65;5.10;;;;;;;;;;5007395;28;20194;-68
2022/04/19 13:42:59;;;;;;;5.27;4.50;;;;;;;;;;5010869;28;20558;-68
2022/04/19 13:45:24;;;;;;;7.05;4.85;;;;;;;;;;5012961;28;20178;-68
2022/04/19 13:47:50;;;;;;;5.65;4.20;;;;;;;;;;5012151;28;20186;-68
2022/04/19 13:50:15;;;;;;;10.20;4.90;;;;;;;;;;5012976;28;20252;-68
2022/04/19 13:52:40;;;;;;;6.47;4.70;;;;;;;;;;5012060;28;20456;-68
2022/04/19 13:55:06;;;;;;;6.93;5.67;;;;;;;;;;5009669;28;20282;-68
2022/04/19 13:57:31;;;;;;;9.30;5.53;;;;;;;;;;5010969;28;20420;-68
2022/04/19 13:59:56;;;;;;;7.75;5.40;;;;;;;;;;5005292;28;20227;-68
2022/04/19 14:02:21;;;;;;;8.03;5.57;;;;;;;;;;5011592;28;20190;-67
2022/04/19 14:04:46;;;;;;;7.63;5.20;;;;;;;;;;5013712;28;21393;-68
2022/04/19 14:07:12;;;;;;;6.82;5.20;;;;;;;;;;5003617;28;20180;-68
2022/04/19 14:09:38;;;;;;;8.68;5.28;;;;;;;;;;5010407;28;20190;-68
2022/04/19 14:12:04;;;;;;;6.80;5.25;;;;;;;;;;5011931;28;20205;-68
2022/04/19 14:14:29;;;;;;;6.60;5.15;;;;;;;;;;5010810;28;20175;-69
2022/04/19 14:16:54;;;;;;;8.57;5.30;;;;;;;;;;5009994;28;20243;-68
2022/04/19 14:19:20;;;;;;;6.40;5.00;;;;;;;;;;5009560;28;20210;-68
2022/04/19 14:21:46;;;;;;;7.25;4.70;;;;;;;;;;5010546;28;20520;-69
2022/04/19 14:24:12;;;;;;;7.40;4.65;;;;;;;;;;5009357;28;20189;-69
2022/04/19 14:26:37;;;;;;;6.45;4.30;;;;;;;;;;5009461;28;20171;-69
2022/04/19 14:34:30;;;;;;;5.07;4.10;;;;;;;;;;5008694;28;20214;-68
2022/04/19 14:36:55;;;;;;;4.37;3.77;;;;;;;;;;5011115;28;20661;-68
2022/04/19 14:39:20;;;;;;;5.10;4.07;;;;;;;;;;5009542;28;20467;-68
2022/04/19 14:41:46;;;;;;;4.87;3.47;;;;;;;;;;5001764;28;20198;-67
2022/04/19 14:44:11;;;;;;;6.05;3.58;;;;;;;;;;5011471;28;20420;-68
2022/04/19 14:46:36;;;;;;;6.53;3.90;;;;;;;;;;5015444;28;20167;-67
2022/04/19 14:49:01;;;;;;;4.22;3.83;;;;;;;;;;5011034;28;20819;-68
2022/04/19 14:54:10;;;;;;;4.30;2.50;;;;;;;;;;5011078;28;20186;-68
2022/04/19 14:56:35;;;;;;;3.88;3.40;;;;;;;;;;5007982;28;20183;-69
2022/04/19 14:59:01;;;;;;;3.83;2.90;;;;;;;;;;5009975;28;20214;-67
2022/04/19 15:01:26;;;;;;;5.20;2.87;;;;;;;;;;5010392;28;20466;-68
2022/04/19 15:03:51;;;;;;;5.82;3.13;;;;;;;;;;5012382;28;20661;-67
2022/04/19 15:06:16;;;;;;;7.63;2.67;;;;;;;;;;5010590;28;20186;-68
2022/04/19 15:08:41;;;;;;;3.93;2.73;;;;;;;;;;5008351;28;20815;-67
2022/04/19 15:11:07;;;;;;;4.03;2.53;;;;;;;;;;5008564;28;20490;-69
2022/04/19 15:13:32;;;;;;;4.85;2.50;;;;;;;;;;5009868;28;20635;-68
2022/04/19 15:15:57;;;;;;;3.20;2.15;;;;;;;;;;5005892;28;20267;-68
2022/04/19 15:18:22;;;;;;;2.80;2.30;;;;;;;;;;5008006;28;20218;-68
2022/04/19 15:20:48;;;;;;;3.65;2.30;;;;;;;;;;5010931;28;20191;-68
2022/04/19 15:23:13;;;;;;;2.60;2.40;;;;;;;;;;5009051;28;20589;-67
2022/04/19 15:25:39;;;;;;;2.63;2.42;;;;;;;;;;5006884;28;20187;-68
2022/04/19 15:28:05;;;;;;;3.58;2.33;;;;;;;;;;5013153;28;20632;-68